Time;durP1;ratioP1;P1;durP2;ratioP2;P2;SDS_P1;SDS_P2;PMS_P1;PMS_P2;Temp;Humidity;BMP_temperature;BMP_pressure;BME280_temperature;BME280_humidity;BME280_pressure;Samples;Min_cycle;Max_cycle;Signal;HPM_P1;HPM_P2
2023/01/25 00:02:23;;;;;;;26.75;20.15;;;1.90;99.90;;;;;;6214170;23;20433;-79
2023/01/25 00:04:52;;;;;;;26.50;19.70;;;2.00;99.90;;;;;;6213884;23;20346;-81
2023/01/25 00:07:18;;;;;;;26.57;18.97;;;1.90;99.90;;;;;;6186938;23;20361;-81
2023/01/25 00:09:44;;;;;;;26.03;18.30;;;2.10;99.90;;;;;;6186324;23;20345;-79
2023/01/25 00:12:10;;;;;;;26.70;19.57;;;2.10;99.90;;;;;;6213717;23;20341;-81
2023/01/25 00:14:35;;;;;;;26.23;20.53;;;2.10;99.90;;;;;;6213702;23;20398;-80
2023/01/25 00:17:01;;;;;;;27.20;19.53;;;2.00;99.90;;;;;;6212346;23;20349;-81
2023/01/25 00:19:28;;;;;;;25.42;19.27;;;2.00;99.90;;;;;;6212631;23;20737;-80
2023/01/25 00:21:54;;;;;;;28.65;20.60;;;2.00;99.90;;;;;;6186920;23;20354;-82
2023/01/25 00:24:21;;;;;;;29.35;20.38;;;2.00;99.90;;;;;;6213988;23;20718;-80
2023/01/25 00:26:47;;;;;;;26.95;20.05;;;2.00;99.90;;;;;;6184400;23;20366;-82
2023/01/25 00:29:14;;;;;;;27.10;20.35;;;1.90;99.90;;;;;;6187694;23;20334;-80
2023/01/25 00:31:43;;;;;;;25.35;19.13;;;1.90;99.90;;;;;;6213305;23;20365;-80
2023/01/25 00:34:24;;;;;;;28.10;20.23;;;2.00;99.90;;;;;;6213680;23;20334;-81
2023/01/25 00:37:27;;;;;;;28.88;22.20;;;2.10;99.90;;;;;;6212292;23;20896;-80
2023/01/25 00:39:52;;;;;;;28.23;20.38;;;2.00;99.90;;;;;;6186831;23;20412;-79
2023/01/25 00:42:19;;;;;;;28.92;21.42;;;1.90;99.90;;;;;;6213092;23;20346;-81
2023/01/25 00:44:46;;;;;;;29.65;20.77;;;1.80;99.90;;;;;;6214308;23;20421;-81
2023/01/25 00:47:12;;;;;;;29.63;20.30;;;1.90;99.90;;;;;;6212593;23;20358;-80
2023/01/25 00:49:39;;;;;;;25.77;20.48;;;1.90;99.90;;;;;;6214286;23;20408;-82
2023/01/25 00:52:05;;;;;;;29.20;20.95;;;2.00;99.90;;;;;;6214527;23;20705;-81
2023/01/25 00:54:31;;;;;;;32.85;21.98;;;2.00;99.90;;;;;;6187386;23;20335;-81
2023/01/25 00:56:57;;;;;;;30.67;22.08;;;1.80;99.90;;;;;;6187883;23;20354;-80
2023/01/25 00:59:23;;;;;;;32.00;21.13;;;1.70;99.90;;;;;;6188852;23;20721;-82
2023/01/25 01:01:49;;;;;;;28.15;21.38;;;1.80;99.90;;;;;;6188184;23;20357;-81
2023/01/25 01:04:15;;;;;;;29.48;22.05;;;1.80;99.90;;;;;;6216252;23;20334;-80
2023/01/25 01:06:41;;;;;;;29.35;22.02;;;1.80;99.90;;;;;;6216524;23;20434;-82
2023/01/25 01:09:12;;;;;;;29.80;21.58;;;1.90;99.90;;;;;;6226411;23;20322;-80
2023/01/25 01:11:38;;;;;;;31.95;22.13;;;2.00;99.90;;;;;;6233330;23;20361;-80
2023/01/25 01:14:03;;;;;;;31.33;23.00;;;1.90;99.90;;;;;;6224795;23;20334;-80
2023/01/25 01:16:29;;;;;;;31.23;23.25;;;1.80;99.90;;;;;;6214098;23;20342;-81
2023/01/25 01:18:55;;;;;;;29.55;22.08;;;1.70;99.90;;;;;;6213839;23;20769;-81
2023/01/25 01:21:21;;;;;;;29.33;20.80;;;1.80;99.90;;;;;;6213986;23;20342;-81
2023/01/25 01:23:47;;;;;;;29.75;22.02;;;1.90;99.90;;;;;;6186802;23;20342;-82
2023/01/25 01:26:14;;;;;;;29.60;20.85;;;2.00;99.90;;;;;;6214050;23;20337;-82
2023/01/25 01:28:41;;;;;;;26.85;20.30;;;2.10;99.90;;;;;;6212350;23;20365;-80
2023/01/25 01:31:13;;;;;;;28.17;20.45;;;2.10;99.90;;;;;;6213329;23;20338;-82
2023/01/25 01:33:39;;;;;;;29.30;21.55;;;2.20;99.90;;;;;;6186773;23;20809;-81
2023/01/25 01:36:13;;;;;;;30.38;21.17;;;2.10;99.90;;;;;;6213588;23;20408;-81
2023/01/25 01:38:40;;;;;;;26.48;20.17;;;2.10;99.90;;;;;;6212254;23;20338;-82
2023/01/25 01:41:06;;;;;;;27.48;19.75;;;2.10;99.90;;;;;;6213060;23;20957;-81
2023/01/25 01:43:32;;;;;;;25.42;19.00;;;2.10;99.90;;;;;;6213615;23;20338;-81
2023/01/25 01:46:00;;;;;;;23.58;19.08;;;2.20;99.90;;;;;;6212733;23;20670;-81
2023/01/25 01:48:35;;;;;;;30.63;20.42;;;2.10;99.90;;;;;;6212255;23;20662;-81
2023/01/25 01:51:23;;;;;;;27.17;20.05;;;1.90;99.90;;;;;;6213386;23;20789;-82
2023/01/25 01:54:01;;;;;;;27.80;19.60;;;1.80;99.90;;;;;;6213644;23;20437;-80
2023/01/25 01:56:35;;;;;;;26.42;19.58;;;1.90;99.90;;;;;;6213063;23;20376;-82
2023/01/25 01:59:02;;;;;;;24.35;19.17;;;2.00;99.90;;;;;;6212825;23;20477;-82
2023/01/25 02:01:28;;;;;;;27.10;19.98;;;2.00;99.90;;;;;;6212056;23;20888;-83
2023/01/25 02:03:54;;;;;;;24.77;19.17;;;2.00;99.90;;;;;;6212866;23;20378;-81
2023/01/25 02:06:35;;;;;;;31.17;21.30;;;2.10;99.90;;;;;;6213005;23;20677;-82
2023/01/25 02:09:02;;;;;;;30.60;20.70;;;1.90;99.90;;;;;;6212650;23;20429;-81
2023/01/25 02:11:29;;;;;;;27.10;20.17;;;1.80;99.90;;;;;;6213249;23;20346;-82
2023/01/25 02:13:57;;;;;;;27.45;20.75;;;1.80;99.90;;;;;;6213127;23;20372;-82
2023/01/25 02:16:26;;;;;;;27.05;20.45;;;2.00;99.90;;;;;;6212598;23;20334;-82
2023/01/25 02:18:54;;;;;;;27.30;20.77;;;2.00;99.90;;;;;;6212557;23;20789;-81
2023/01/25 02:21:22;;;;;;;28.80;21.93;;;1.90;99.90;;;;;;6186160;23;20357;-81
2023/01/25 02:26:26;;;;;;;26.70;20.67;;;1.70;99.90;;;;;;6206049;22;20381;-80
2023/01/25 02:29:04;;;;;;;30.23;20.70;;;1.70;99.90;;;;;;6210608;23;20443;-79
2023/01/25 02:31:31;;;;;;;26.77;19.08;;;1.90;99.90;;;;;;6211057;23;20345;-82
2023/01/25 02:33:57;;;;;;;28.92;21.35;;;2.00;99.90;;;;;;6209135;23;20386;-81
2023/01/25 02:36:29;;;;;;;30.55;21.98;;;1.90;99.90;;;;;;6210620;23;20353;-82
2023/01/25 02:39:17;;;;;;;27.47;19.60;;;1.90;99.90;;;;;;6210258;23;20334;-82
2023/01/25 02:41:48;;;;;;;27.98;20.35;;;2.00;99.90;;;;;;6211765;23;20353;-83
2023/01/25 02:44:20;;;;;;;28.00;19.70;;;1.90;99.90;;;;;;6211376;23;20656;-82
2023/01/25 02:46:49;;;;;;;27.85;21.05;;;1.90;99.90;;;;;;6210730;23;20796;-81
2023/01/25 02:49:15;;;;;;;29.13;21.10;;;2.00;99.90;;;;;;6211126;23;20346;-82
2023/01/25 02:51:45;;;;;;;28.92;20.27;;;2.10;99.90;;;;;;6211575;23;20353;-81
2023/01/25 02:54:12;;;;;;;29.48;19.95;;;2.10;99.90;;;;;;6209951;23;20350;-82
2023/01/25 02:56:41;;;;;;;25.35;18.95;;;2.10;99.90;;;;;;6211538;23;20342;-82
2023/01/25 02:59:08;;;;;;;27.13;19.70;;;2.00;99.90;;;;;;6210251;23;20380;-82
2023/01/25 03:01:40;;;;;;;30.17;20.42;;;2.20;99.90;;;;;;6210998;23;20350;-81
2023/01/25 03:04:06;;;;;;;28.90;20.55;;;1.90;99.90;;;;;;6211216;23;20352;-81
2023/01/25 03:06:33;;;;;;;26.60;20.35;;;1.90;99.90;;;;;;6210810;23;20432;-80
2023/01/25 03:08:58;;;;;;;28.52;20.88;;;2.00;99.90;;;;;;6210619;23;20746;-82
2023/01/25 03:11:24;;;;;;;27.00;21.00;;;2.00;99.90;;;;;;6210744;23;20389;-81
2023/01/25 03:13:50;;;;;;;30.23;20.97;;;1.90;99.90;;;;;;6210337;23;20349;-82
2023/01/25 03:16:16;;;;;;;28.38;21.10;;;1.80;99.90;;;;;;6211104;23;20457;-80
2023/01/25 03:18:42;;;;;;;25.60;20.73;;;1.80;99.90;;;;;;6210690;23;20354;-81
2023/01/25 03:21:11;;;;;;;26.83;19.80;;;1.90;99.90;;;;;;6210596;23;20346;-81
2023/01/25 03:23:37;;;;;;;27.70;21.15;;;1.80;99.90;;;;;;6210528;23;20372;-81
2023/01/25 03:26:15;;;;;;;29.38;20.92;;;2.10;99.90;;;;;;6207891;23;20875;-81
2023/01/25 03:28:42;;;;;;;28.17;20.97;;;2.10;99.90;;;;;;6210611;23;20427;-82
2023/01/25 03:31:10;;;;;;;25.13;19.55;;;2.10;99.90;;;;;;6192255;23;20390;-81
2023/01/25 03:33:36;;;;;;;27.50;20.45;;;2.10;99.90;;;;;;6190705;23;20431;-82
2023/01/25 03:36:02;;;;;;;26.20;19.33;;;2.10;99.90;;;;;;6193247;23;20338;-81
2023/01/25 03:38:29;;;;;;;26.80;20.23;;;2.20;99.90;;;;;;6191355;23;20369;-81
2023/01/25 03:40:55;;;;;;;27.63;20.08;;;2.10;99.90;;;;;;6189624;23;20983;-80
2023/01/25 03:43:20;;;;;;;27.95;19.98;;;2.10;99.90;;;;;;6191354;23;20450;-81
2023/01/25 03:45:52;;;;;;;24.77;18.98;;;2.20;99.90;;;;;;6190895;23;20424;-81
2023/01/25 03:48:18;;;;;;;29.48;20.23;;;2.20;99.90;;;;;;6188391;23;20381;-81
2023/01/25 03:50:51;;;;;;;27.30;19.63;;;2.00;99.90;;;;;;6192230;23;20334;-80
2023/01/25 03:53:27;;;;;;;24.75;18.75;;;2.00;99.90;;;;;;6194142;23;20354;-82
2023/01/25 03:56:07;;;;;;;28.45;21.50;;;2.10;99.90;;;;;;6196285;23;20362;-80
2023/01/25 03:58:33;;;;;;;27.35;21.02;;;2.00;99.90;;;;;;6190861;23;20392;-81
2023/01/25 04:00:59;;;;;;;29.10;20.27;;;2.10;99.90;;;;;;6211106;23;20401;-79
2023/01/25 04:03:26;;;;;;;26.75;19.63;;;2.00;99.90;;;;;;6211200;23;20377;-80
2023/01/25 04:05:54;;;;;;;26.20;20.17;;;2.00;99.90;;;;;;6212269;23;20349;-79
2023/01/25 04:08:21;;;;;;;28.23;21.40;;;2.00;99.90;;;;;;6208631;23;20378;-80
2023/01/25 04:10:55;;;;;;;30.63;22.95;;;2.10;99.90;;;;;;6208192;23;20365;-80
2023/01/25 04:13:22;;;;;;;28.05;21.27;;;1.90;99.90;;;;;;6211898;23;20436;-81
2023/01/25 04:15:48;;;;;;;28.17;21.40;;;1.90;99.90;;;;;;6212213;23;20342;-80
2023/01/25 04:18:14;;;;;;;27.53;21.37;;;2.00;99.90;;;;;;6212366;23;20350;-82
2023/01/25 04:20:41;;;;;;;30.88;21.67;;;2.00;99.90;;;;;;6210610;23;20354;-79
2023/01/25 04:23:08;;;;;;;25.77;20.40;;;2.10;99.90;;;;;;6212230;23;20341;-82
2023/01/25 04:25:34;;;;;;;27.13;20.88;;;2.10;99.90;;;;;;6210424;23;20407;-81
2023/01/25 04:27:59;;;;;;;27.35;20.90;;;2.20;99.90;;;;;;6211675;23;20761;-81
2023/01/25 04:30:25;;;;;;;26.60;20.80;;;2.30;99.90;;;;;;6210448;23;20922;-81
2023/01/25 04:32:51;;;;;;;30.25;22.52;;;2.30;99.90;;;;;;6212104;23;20430;-80
2023/01/25 04:35:19;;;;;;;28.80;20.67;;;2.30;99.90;;;;;;6211811;23;20353;-80
2023/01/25 04:37:55;;;;;;;28.52;21.30;;;2.10;99.90;;;;;;6210803;23;20357;-81
2023/01/25 04:40:21;;;;;;;28.40;21.27;;;2.10;99.90;;;;;;6214420;23;20423;-82
2023/01/25 04:42:47;;;;;;;32.27;23.87;;;2.20;99.90;;;;;;6213841;23;20353;-81
2023/01/25 04:45:12;;;;;;;30.58;22.55;;;2.10;99.90;;;;;;6217160;23;20353;-81
2023/01/25 04:47:38;;;;;;;27.85;21.27;;;2.00;99.90;;;;;;6227347;23;20376;-80
2023/01/25 04:50:07;;;;;;;26.05;20.80;;;1.90;99.90;;;;;;6227152;23;20386;-80
2023/01/25 04:52:32;;;;;;;28.02;20.95;;;2.10;99.90;;;;;;6213283;23;20404;-81
2023/01/25 04:54:58;;;;;;;30.08;22.50;;;2.10;99.90;;;;;;6211873;23;20354;-81
2023/01/25 04:57:24;;;;;;;29.03;23.17;;;2.10;99.90;;;;;;6211523;23;20445;-81
2023/01/25 04:59:49;;;;;;;33.10;23.20;;;2.10;99.90;;;;;;6211874;23;20346;-81
2023/01/25 05:02:15;;;;;;;29.00;22.83;;;1.80;99.90;;;;;;6210012;23;20415;-80
2023/01/25 05:04:41;;;;;;;27.33;21.40;;;1.80;99.90;;;;;;6211845;23;20768;-80
2023/01/25 05:07:07;;;;;;;25.27;19.63;;;1.90;99.90;;;;;;6211384;23;20370;-81
2023/01/25 05:09:32;;;;;;;27.00;20.90;;;2.00;99.90;;;;;;6211883;23;20365;-82
2023/01/25 05:11:58;;;;;;;30.65;22.73;;;2.00;99.90;;;;;;6211305;23;20354;-81
2023/01/25 05:14:24;;;;;;;28.40;22.02;;;2.10;99.90;;;;;;6212221;23;20346;-81
2023/01/25 05:16:50;;;;;;;30.55;21.90;;;2.10;99.90;;;;;;6210806;23;20404;-82
2023/01/25 05:19:15;;;;;;;23.40;19.23;;;2.10;99.90;;;;;;6212101;23;20415;-81
2023/01/25 05:21:59;;;;;;;30.43;23.07;;;2.20;99.90;;;;;;6212210;23;20353;-80
2023/01/25 05:24:30;;;;;;;29.88;23.23;;;2.30;99.90;;;;;;6210450;23;20350;-81
2023/01/25 05:26:59;;;;;;;30.58;22.58;;;2.10;99.90;;;;;;6210922;23;20673;-81
2023/01/25 05:29:27;;;;;;;29.02;21.40;;;2.10;99.90;;;;;;6210486;23;20665;-81
2023/01/25 05:31:54;;;;;;;29.23;21.75;;;2.20;99.90;;;;;;6211550;23;20334;-80
2023/01/25 05:34:19;;;;;;;29.02;22.80;;;2.20;99.90;;;;;;6211815;23;20801;-79
2023/01/25 05:36:45;;;;;;;28.10;21.77;;;2.30;99.90;;;;;;6210032;23;20405;-81
2023/01/25 05:39:11;;;;;;;27.07;21.13;;;2.30;99.90;;;;;;6207635;23;20366;-80
2023/01/25 05:41:37;;;;;;;29.42;22.38;;;2.30;99.90;;;;;;6209936;23;20354;-80
2023/01/25 05:44:03;;;;;;;29.65;21.13;;;2.20;99.90;;;;;;6209011;23;20470;-82
2023/01/25 05:46:29;;;;;;;27.13;20.95;;;2.10;99.90;;;;;;6210763;23;20350;-80
2023/01/25 05:48:54;;;;;;;29.35;21.45;;;2.10;99.90;;;;;;6208210;23;20373;-82
2023/01/25 05:51:24;;;;;;;26.92;21.40;;;2.20;99.90;;;;;;6210383;23;20346;-81
2023/01/25 05:53:50;;;;;;;25.15;20.75;;;2.20;99.90;;;;;;6210383;23;20369;-81
2023/01/25 05:56:16;;;;;;;26.23;20.67;;;2.30;99.90;;;;;;6208290;23;20365;-83
2023/01/25 05:58:41;;;;;;;27.00;22.03;;;2.30;99.90;;;;;;6209934;23;20472;-81
2023/01/25 06:04:54;;;;;;;;;;;;;;;;;;;;;
2023/01/25 06:07:39;;;;;;;28.02;21.77;;;2.30;99.90;;;;;;6198840;23;20461;-79
2023/01/25 06:11:11;;;;;;;;;;;;;;;;;;;;;
2023/01/25 06:13:47;;;;;;;23.38;17.90;;;2.50;99.90;;;;;;6129043;23;20429;-80
2023/01/25 06:23:32;;;;;;;28.92;21.83;;;2.40;99.90;;;;;;6103210;23;20414;-82
2023/01/25 06:26:05;;;;;;;28.55;22.25;;;2.40;99.90;;;;;;6115126;23;20433;-81
2023/01/25 06:28:38;;;;;;;28.50;22.20;;;2.40;99.90;;;;;;6096506;23;20437;-80
2023/01/25 06:31:30;;;;;;;31.85;23.77;;;2.50;99.90;;;;;;6163253;23;20354;-80
2023/01/25 06:34:23;;;;;;;32.22;24.58;;;2.60;99.90;;;;;;6196319;23;20459;-80
2023/01/25 06:41:18;;;;;;;32.30;24.23;;;2.50;99.90;;;;;;6209203;23;20342;-79
2023/01/25 06:48:20;;;;;;;;;;;;;;;;;;;;;
2023/01/25 06:55:51;;;;;;;;;;;;;;;;;;;;;
2023/01/25 07:08:48;;;;;;;25.73;20.27;;;2.40;99.90;;;;;;6055677;23;20949;-79
2023/01/25 07:12:09;;;;;;;;;;;;;;;;;;;;;
2023/01/25 07:14:52;;;;;;;23.05;17.20;;;2.20;99.90;;;;;;6163228;23;20444;-79
2023/01/25 07:17:09;;;;;;;20.17;16.50;;;2.00;99.90;;;;;;6207434;23;20361;-80
2023/01/25 07:19:39;;;;;;;21.52;16.92;;;2.00;99.90;;;;;;6212184;23;20342;-80
2023/01/25 07:22:05;;;;;;;24.50;19.02;;;2.20;99.90;;;;;;6213092;23;20370;-80
2023/01/25 07:24:32;;;;;;;23.23;18.98;;;2.20;99.90;;;;;;6210116;23;20358;-80
2023/01/25 07:27:04;;;;;;;23.73;19.58;;;2.20;99.90;;;;;;6212403;23;20365;-79
2023/01/25 07:29:53;;;;;;;22.77;18.00;;;2.40;99.90;;;;;;6216092;23;20425;-80
2023/01/25 07:32:18;;;;;;;22.08;17.15;;;2.40;99.90;;;;;;6222049;23;20357;-80
2023/01/25 07:34:44;;;;;;;21.17;17.20;;;2.40;99.90;;;;;;6220666;23;20342;-80
2023/01/25 07:37:10;;;;;;;21.92;16.92;;;2.30;99.90;;;;;;6211985;23;20923;-79
2023/01/25 07:39:48;;;;;;;20.80;16.90;;;2.50;99.90;;;;;;6213145;23;20346;-79
2023/01/25 08:10:43;;;;;;;23.80;17.13;;;2.50;99.90;;;;;;5778396;24;20707;-80
2023/01/25 08:13:48;;;;;;;21.33;17.83;;;2.40;99.90;;;;;;5762734;24;20798;-81
2023/01/25 08:16:23;;;;;;;22.63;18.30;;;2.30;99.90;;;;;;5954152;23;20502;-81
2023/01/25 08:18:56;;;;;;;22.88;19.15;;;2.30;99.90;;;;;;6099098;23;20489;-80
2023/01/25 08:21:28;;;;;;;27.33;20.97;;;2.50;99.90;;;;;;6194595;23;20338;-79
2023/01/25 08:24:11;;;;;;;23.90;19.30;;;2.50;99.90;;;;;;6210119;23;20368;-79
2023/01/25 08:26:43;;;;;;;21.17;16.77;;;2.50;99.90;;;;;;6210815;23;20388;-79
2023/01/25 08:29:28;;;;;;;22.67;17.50;;;2.40;99.90;;;;;;6209601;23;20366;-78
2023/01/25 08:32:21;;;;;;;20.60;17.77;;;2.30;99.90;;;;;;6212449;23;20397;-79
2023/01/25 08:35:20;;;;;;;;;;;;;;;;;;;;;
2023/01/25 08:38:39;;;;;;;;;;;;;;;;;;;;;
2023/01/25 08:41:47;;;;;;;;;;;;;;;;;;;;;
2023/01/25 08:44:22;;;;;;;25.83;21.27;;;2.60;99.90;;;;;;6207200;23;20937;-80
2023/01/25 08:50:04;;;;;;;24.83;20.52;;;2.20;99.90;;;;;;6210747;23;20380;-80
2023/01/25 08:52:35;;;;;;;24.77;20.63;;;2.00;99.90;;;;;;6210532;23;20342;-81
2023/01/25 08:55:13;;;;;;;29.52;22.35;;;2.00;99.90;;;;;;6213370;23;20375;-81
2023/01/25 08:57:49;;;;;;;25.87;20.27;;;2.10;99.90;;;;;;6213114;23;20454;-80
2023/01/25 09:00:23;;;;;;;28.23;21.70;;;2.00;99.90;;;;;;6213905;23;20369;-78
2023/01/25 09:02:58;;;;;;;;;;;;;;;;;;;;;
2023/01/25 09:05:24;;;;;;;29.33;23.10;;;1.90;99.90;;;;;;6212202;23;20497;-79
2023/01/25 09:07:59;;;;;;;31.15;24.38;;;1.90;99.90;;;;;;6212180;23;20389;-79
2023/01/25 09:10:34;;;;;;;29.63;23.08;;;2.10;99.90;;;;;;6214164;23;20382;-78
2023/01/25 09:13:10;;;;;;;30.50;24.15;;;2.10;99.90;;;;;;6212697;23;20342;-80
2023/01/25 09:15:42;;;;;;;32.27;23.57;;;2.10;99.90;;;;;;6211511;23;20350;-80
2023/01/25 09:18:18;;;;;;;34.65;25.30;;;2.20;99.90;;;;;;6213352;23;20376;-80
2023/01/25 09:21:04;;;;;;;32.28;24.95;;;2.20;99.90;;;;;;6213465;23;20353;-79
2023/01/25 09:23:33;;;;;;;37.05;26.60;;;2.10;99.90;;;;;;6211303;23;20404;-80
2023/01/25 09:26:18;;;;;;;;;;;;;;;;;;;;;
2023/01/25 09:28:57;;;;;;;39.97;28.40;;;2.10;99.90;;;;;;6212272;23;20464;-80
2023/01/25 09:31:23;;;;;;;34.72;26.98;;;2.10;99.90;;;;;;6212522;23;20674;-80
2023/01/25 09:33:50;;;;;;;33.63;25.50;;;2.20;99.90;;;;;;6210137;23;20740;-80
2023/01/25 09:36:19;;;;;;;31.25;23.50;;;2.00;99.90;;;;;;6210760;23;20358;-81
2023/01/25 09:38:55;;;;;;;;;;;;;;;;;;;;;
2023/01/25 09:42:33;;;;;;;28.30;23.30;;;2.10;99.90;;;;;;6213108;23;20418;-80
2023/01/25 09:45:32;;;;;;;31.90;23.85;;;2.20;99.90;;;;;;6092398;23;20445;-80
2023/01/25 09:48:42;;;;;;;34.83;25.30;;;2.20;99.90;;;;;;6085919;23;20428;-80
2023/01/25 09:51:47;;;;;;;;;;;;;;;;;;;;;
2023/01/25 09:54:20;;;;;;;36.90;25.92;;;2.00;99.90;;;;;;6211648;23;20449;-80
2023/01/25 09:56:52;;;;;;;39.55;27.45;;;1.90;99.90;;;;;;6209655;23;20381;-80
2023/01/25 09:59:48;;;;;;;41.10;28.02;;;1.80;99.90;;;;;;6211715;23;20538;-79
2023/01/25 10:03:09;;;;;;;39.08;28.30;;;1.80;99.90;;;;;;6210151;23;20358;-79
2023/01/25 10:05:47;;;;;;;44.58;30.90;;;1.70;99.90;;;;;;6136362;23;21093;-79
2023/01/25 10:08:31;;;;;;;42.65;30.95;;;1.60;99.90;;;;;;6210804;23;20792;-81
2023/01/25 10:11:11;;;;;;;44.90;31.55;;;1.80;99.90;;;;;;6211599;23;20338;-80
2023/01/25 10:13:52;;;;;;;46.28;31.95;;;1.80;99.90;;;;;;6211894;23;20352;-80
2023/01/25 10:16:49;;;;;;;43.65;30.65;;;1.80;99.90;;;;;;6212295;23;20374;-79
2023/01/25 10:19:42;;;;;;;43.45;30.95;;;1.70;99.90;;;;;;6212773;23;20342;-80
2023/01/25 10:22:17;;;;;;;46.72;31.40;;;1.70;99.90;;;;;;6210416;23;20916;-78
2023/01/25 10:24:54;;;;;;;45.73;32.53;;;1.70;99.90;;;;;;6212983;23;20397;-80
2023/01/25 10:27:52;;;;;;;45.15;32.42;;;1.80;99.90;;;;;;6209738;23;20404;-79
2023/01/25 10:30:48;;;;;;;46.45;32.17;;;1.90;99.90;;;;;;6210383;23;20460;-79
2023/01/25 10:33:20;;;;;;;41.90;29.55;;;2.00;99.90;;;;;;6208025;23;20345;-80
2023/01/25 10:36:13;;;;;;;;;;;;;;;;;;;;;
2023/01/25 10:41:59;;;;;;;40.47;28.88;;;2.30;99.90;;;;;;6199374;23;20362;-79
2023/01/25 10:44:39;;;;;;;40.20;29.70;;;2.40;99.90;;;;;;6210742;23;20346;-80
2023/01/25 10:47:40;;;;;;;42.17;31.10;;;2.40;99.90;;;;;;6209201;23;20397;-80
2023/01/25 10:51:02;;;;;;;43.75;30.92;;;2.40;99.90;;;;;;6210144;23;20686;-81
2023/01/25 10:53:46;;;;;;;43.15;29.85;;;2.50;99.90;;;;;;6119664;23;20355;-80
2023/01/25 10:56:33;;;;;;;42.67;29.38;;;2.40;99.90;;;;;;6208705;23;20432;-80
2023/01/25 11:02:46;;;;;;;46.38;31.33;;;2.30;99.90;;;;;;6075410;23;20351;-80
2023/01/25 11:05:45;;;;;;;;;;;;;;;;;;;;;
2023/01/25 11:08:29;;;;;;;47.58;32.58;;;2.20;99.90;;;;;;6211896;23;20524;-79
2023/01/25 11:11:16;;;;;;;46.28;32.25;;;2.20;99.90;;;;;;6213721;23;20382;-79
2023/01/25 11:14:15;;;;;;;51.35;33.97;;;2.20;99.90;;;;;;6213151;23;20365;-78
2023/01/25 11:17:03;;;;;;;52.63;34.50;;;2.10;99.90;;;;;;6212115;23;20354;-79
2023/01/25 11:19:39;;;;;;;52.42;34.60;;;1.90;99.90;;;;;;6211143;23;20728;-79
2023/01/25 11:22:27;;;;;;;54.83;37.55;;;1.80;99.90;;;;;;6212792;23;20350;-80
2023/01/25 11:24:53;;;;;;;53.28;35.65;;;1.80;99.90;;;;;;6210338;23;20358;-79
2023/01/25 11:27:32;;;;;;;51.80;33.40;;;1.70;99.90;;;;;;6213365;23;20361;-80
2023/01/25 11:30:29;;;;;;;;;;;;;;;;;;;;;
2023/01/25 11:33:11;;;;;;;44.90;31.02;;;1.70;99.90;;;;;;6214314;23;20491;-80
2023/01/25 11:36:01;;;;;;;47.47;31.73;;;1.90;99.90;;;;;;6212104;23;21109;-79
2023/01/25 11:39:16;;;;;;;49.03;31.98;;;2.10;99.90;;;;;;6211025;23;20356;-80
2023/01/25 11:42:49;;;;;;;;;;;;;;;;;;;;;
2023/01/25 11:49:07;;;;;;;62.90;37.88;;;1.90;99.90;;;;;;6205664;23;20378;-80
2023/01/25 11:52:00;;;;;;;57.22;36.67;;;1.80;99.90;;;;;;6213625;23;20807;-80
2023/01/25 11:55:06;;;;;;;56.77;37.37;;;1.90;99.90;;;;;;6209322;23;20341;-79
2023/01/25 11:58:10;;;;;;;56.25;36.42;;;1.80;99.90;;;;;;6177287;23;20377;-80
2023/01/25 12:01:02;;;;;;;52.70;36.67;;;1.60;99.90;;;;;;6212683;23;21134;-79
2023/01/25 12:04:19;;;;;;;53.03;34.75;;;1.70;99.90;;;;;;6212766;23;20653;-80
2023/01/25 12:07:40;;;;;;;53.42;35.53;;;1.80;99.90;;;;;;6211603;23;20824;-79
2023/01/25 12:14:09;;;;;;;59.28;38.05;;;1.80;99.90;;;;;;6210343;23;20345;-79
2023/01/25 12:16:54;;;;;;;56.22;38.08;;;1.70;99.90;;;;;;6093921;23;20417;-80
2023/01/25 12:19:59;;;;;;;62.60;40.03;;;1.80;99.90;;;;;;6123340;23;20347;-81
2023/01/25 12:22:36;;;;;;;54.53;36.03;;;2.00;99.90;;;;;;6209260;23;20475;-81
2023/01/25 12:25:38;;;;;;;54.17;35.70;;;2.00;99.90;;;;;;6214500;23;20369;-81
2023/01/25 12:29:02;;;;;;;54.35;34.75;;;1.90;99.90;;;;;;6207509;23;20389;-81
2023/01/25 12:32:15;;;;;;;53.93;36.87;;;1.80;99.90;;;;;;6210568;23;20383;-81
2023/01/25 12:34:50;;;;;;;60.05;37.88;;;1.70;99.90;;;;;;6211891;23;20350;-80
2023/01/25 12:37:23;;;;;;;55.97;37.45;;;1.70;99.90;;;;;;6212987;23;20338;-80
2023/01/25 12:40:20;;;;;;;50.17;33.90;;;1.70;99.90;;;;;;6213748;23;20343;-81
2023/01/25 12:42:55;;;;;;;47.40;31.87;;;1.70;99.90;;;;;;6213688;23;20380;-81
2023/01/25 12:45:49;;;;;;;44.67;30.80;;;1.60;99.90;;;;;;6210768;23;20433;-80
2023/01/25 12:48:21;;;;;;;44.97;30.45;;;1.70;99.90;;;;;;6211253;23;20697;-82
2023/01/25 12:51:01;;;;;;;43.10;29.33;;;1.70;99.90;;;;;;6209877;23;20805;-80
2023/01/25 12:53:48;;;;;;;47.53;32.75;;;1.60;99.90;;;;;;6208656;23;20697;-79
2023/01/25 12:57:04;;;;;;;;;;;;;;;;;;;;;
2023/01/25 13:00:05;;;;;;;;;;;;;;;;;;;;;
2023/01/25 13:02:56;;;;;;;45.75;30.30;;;1.50;99.90;;;;;;6211263;23;20449;-80
2023/01/25 13:05:45;;;;;;;46.47;31.67;;;1.50;99.90;;;;;;6211310;23;20778;-79
2023/01/25 13:08:51;;;;;;;46.47;32.13;;;1.50;99.90;;;;;;6210550;23;20369;-80
2023/01/25 13:11:23;;;;;;;47.03;31.90;;;1.70;99.90;;;;;;6149682;23;20373;-79
2023/01/25 13:14:02;;;;;;;;;;;;;;;;;;;;;
2023/01/25 13:16:50;;;;;;;;;;;;;;;;;;;;;
2023/01/25 13:19:34;;;;;;;45.15;32.38;;;1.70;99.90;;;;;;6212225;23;20421;-80
2023/01/25 13:22:00;;;;;;;48.60;34.67;;;1.70;99.90;;;;;;6213758;23;20429;-79
2023/01/25 13:24:56;;;;;;;44.17;29.83;;;1.80;99.90;;;;;;6210902;23;20380;-79
2023/01/25 13:27:35;;;;;;;47.72;32.33;;;1.70;99.90;;;;;;6208584;23;20370;-81
2023/01/25 13:30:20;;;;;;;45.63;31.95;;;1.50;99.90;;;;;;6203787;23;20873;-80
2023/01/25 13:32:54;;;;;;;44.97;29.23;;;1.50;99.90;;;;;;6209151;23;20453;-79
2023/01/25 13:35:39;;;;;;;43.60;32.03;;;1.40;99.90;;;;;;6204594;23;20358;-81
2023/01/25 13:38:28;;;;;;;44.55;30.52;;;1.30;99.90;;;;;;6208756;23;20877;-80
2023/01/25 13:41:49;;;;;;;;;;;;;;;;;;;;;
2023/01/25 13:44:49;;;;;;;42.10;29.17;;;1.50;99.90;;;;;;6182088;23;20499;-80
2023/01/25 13:47:56;;;;;;;40.92;28.50;;;1.60;99.90;;;;;;6178507;23;20362;-81
2023/01/25 13:50:38;;;;;;;42.10;28.52;;;1.60;99.90;;;;;;6210648;23;20358;-79
2023/01/25 13:53:34;;;;;;;38.20;28.00;;;1.60;99.90;;;;;;6204706;23;20473;-80
2023/01/25 13:56:31;;;;;;;40.28;28.60;;;1.60;99.90;;;;;;6212513;23;20381;-80
2023/01/25 13:59:05;;;;;;;38.95;27.27;;;1.60;99.90;;;;;;6206758;23;20829;-79
2023/01/25 14:01:35;;;;;;;39.83;27.43;;;1.50;99.90;;;;;;6209803;23;20425;-80
2023/01/25 14:04:17;;;;;;;40.25;27.38;;;1.40;99.90;;;;;;6205141;23;20438;-78
2023/01/25 14:38:17;;;;;;;;;;;;;;;;;;;;;
2023/01/25 14:45:16;;;;;;;55.65;32.53;;;1.30;99.90;;;;;;5884039;24;20425;-80
2023/01/25 15:34:36;;;;;;;;;;;;;;;;;;;;;
2023/01/25 15:40:59;;;;;;;;;;;;;;;;;;;;;
2023/01/25 15:44:18;;;;;;;46.92;28.58;;;1.10;99.90;;;;;;6221388;23;20371;-83
2023/01/25 15:47:13;;;;;;;40.10;25.08;;;1.70;99.90;;;;;;6170119;23;20606;-84
2023/01/25 15:50:46;;;;;;;38.15;24.70;;;2.00;99.90;;;;;;5107006;27;20360;-82
2023/01/25 15:53:17;;;;;;;41.10;24.30;;;1.90;99.90;;;;;;5107800;28;20761;-81
2023/01/25 15:55:46;;;;;;;37.92;23.83;;;2.30;99.90;;;;;;5100838;28;20861;-81
2023/01/25 15:58:19;;;;;;;40.63;25.07;;;2.40;99.90;;;;;;5113103;27;20839;-81
2023/01/25 16:00:45;;;;;;;40.58;26.20;;;1.60;99.90;;;;;;5102579;28;20391;-81
2023/01/25 16:03:11;;;;;;;42.92;26.55;;;1.60;99.90;;;;;;5095943;28;20421;-81
2023/01/25 16:05:37;;;;;;;46.20;28.02;;;1.50;99.90;;;;;;5080459;28;20397;-81
2023/01/25 16:08:03;;;;;;;47.92;29.48;;;1.80;99.90;;;;;;5097677;27;20395;-81
2023/01/25 16:10:29;;;;;;;50.88;29.98;;;1.10;99.90;;;;;;5104926;28;20465;-81
2023/01/25 16:12:55;;;;;;;43.20;26.15;;;1.40;99.90;;;;;;5105769;28;20388;-82
2023/01/25 16:15:20;;;;;;;45.15;27.63;;;1.60;99.90;;;;;;5106252;28;20359;-82
2023/01/25 16:17:46;;;;;;;43.88;28.20;;;1.50;99.90;;;;;;5105054;28;20379;-82
2023/01/25 16:20:20;;;;;;;49.93;29.43;;;1.60;99.90;;;;;;5105972;27;20388;-82
2023/01/25 16:22:46;;;;;;;49.30;30.27;;;1.70;99.90;;;;;;5094816;28;20458;-80
2023/01/25 16:25:12;;;;;;;48.15;29.30;;;1.80;99.90;;;;;;5085372;28;20416;-80
2023/01/25 16:27:38;;;;;;;44.05;27.90;;;1.40;99.90;;;;;;5085384;28;20377;-81
2023/01/25 16:30:05;;;;;;;42.57;26.27;;;1.70;99.90;;;;;;5100227;28;20447;-81
2023/01/25 16:32:31;;;;;;;42.60;26.38;;;1.40;99.90;;;;;;5091546;27;20427;-80
2023/01/25 16:34:58;;;;;;;42.42;26.67;;;1.10;99.90;;;;;;5106107;28;20380;-80
2023/01/25 16:37:24;;;;;;;40.03;24.92;;;1.70;99.90;;;;;;5095827;28;20392;-81
2023/01/25 16:39:51;;;;;;;40.88;27.30;;;1.50;99.90;;;;;;5103479;28;20795;-82
2023/01/25 16:42:17;;;;;;;42.13;28.55;;;1.40;99.90;;;;;;5102725;28;20757;-80
2023/01/25 16:44:44;;;;;;;44.00;26.80;;;1.80;99.90;;;;;;5098177;27;20386;-80
2023/01/25 16:47:13;;;;;;;42.58;27.92;;;1.50;99.90;;;;;;5109570;27;20391;-80